Relevés horaires Bouveret (Suisse)


Relevés horaires à Bouveret - Lundi 27 Avr. 2015
Heure UTC1 Température [°C] Vent [km/h] Hum. [%] Pres.4 [hPa] Visi. [Km] Nébu. [octa] Préc.5 [mm] Cond.
2m. Res. Ros. Dir.2 Vit. Moy. Raf.3
23:00 11.9 8.5 8.2 O 40.7 46.3 55.6 78 1006.4(3.4/3h) -- -- -- --
22:00 12.1 8.4 9.8 O 50.0 50.0 61.1 86 1004.1(2.1/3h) -- -- -- --
21:00 13.3 11.8 12.1 ONO 16.7 18.5 22.2 92 1003.1(1.9/3h) -- -- -- --
20:00 14.1 13 11.8 O 14.8 18.5 22.2 86 1002.5(1.7/3h) -- -- -- --
19:00 13.8 12.6 12.2 O 14.8 18.5 20.4 90 1001.6(2.1/3h) -- -- -- --
18:00 13.8 12.3 12.1 ONO 18.5 38.9 51.9 89 1001 -- -- -- --
17:00 14.1 13 11.5 NO 14.8 31.5 40.7 84 1000.7(1.9/3h) -- -- -- --
16:00 15.1 12.8 10.5 ONO 38.9 38.9 51.9 74 999.2(0.2/3h) -- -- -- --
15:00 16.4 14.9 11.7 ONO 29.6 27.8 31.5 74 998.4 -- -- -- --
14:00 15.2 14.7 12.9 NNO 11.1 13.0 16.7 86 998.6(-1.4/3h) -- -- -- --
13:00 15.8 15.4 12.4 NNO 11.1 11.1 16.7 80 998.9(-1.7/3h) -- -- -- --
12:00 14.9 14.6 12.4 N 9.3 14.8 18.5 85 999.4(-1.4/3h) -- -- -- --
11:00 14.2 14 12.4 NNO 7.4 9.3 11.1 89 1000.2(-0.4/3h) -- -- -- --
10:00 13.5 13.2 12.3 NO 7.4 14.8 16.7 92 1001(-0.3/3h) -- -- -- --
09:00 14.6 14.2 12.0 NO 9.3 11.1 18.5 84 1000.9(-1.1/3h) -- -- -- --
08:00 14.8 14.5 11.8 SSE 9.3 11.1 18.5 82 1000.5(-1.7/3h) -- -- -- --
07:00 13.4 12.5 11.8 SE 11.1 11.1 18.5 90 1001.4(-1.2/3h) -- -- -- --
06:00 12.8 12.4 11.9 SO 7.4 9.3 14.8 94 1002.3(-0.4/3h) -- -- -- --
05:00 12.8 12.8 11.8 ONO 5.6 7.4 9.3 94 1002.6(0.2/3h) -- -- -- --
04:00 12.9 12.2 12.0 ONO 9.3 9.3 14.8 94 1002.7(-0.9/3h) -- -- -- --
03:00 12.0 12.0 11.0 SO 1.9 5.6 7.4 94 1002.9 -- -- -- --
02:00 11.7 11.7 10.9 S 3.7 5.6 5.6 95 1003(-1.8/3h) -- -- -- --
01:00 12.3 12.3 11.2 SE 1.9 5.6 7.4 93 1003.8(-1.2/3h) -- -- -- --
00:00 13.0 13 11.6 O 5.6 7.4 13.0 91 1004.3(-0.9/3h) -- -- -- --

1 Coordinated Universal Time. Actuellement il est 07:00 locale et 05:00 UTC.

2 Le vent souffle depuis la direction indiquée vers la direction oposée.

3 Les rafales max. sont disponible 40 min après l'heure du relevé.

4 Pour les stations d'altitude (plus de 600m) le géopotentiel du niveau le plus proche de la pression obligatoire est indiqué.

5 Les stations disposant d'un diffuseur peuvent indiquer "trace". Cela signifie que des précipitations ont touchés le sol mais que la quantité est inférieure à 0.1 mm.

Copyright

Les données affichées sur cette page sont la propriété exclusive de Météo Suisse.

Récapitulatif de la journée
Température [°C] Vent [km/h] Ensoleillement4 [h] Precipitations totale5 [mm] Pression [Hpa]
Min1 Max.2 Moy.3 Max. Min Max.
11.6 16.5 18.1 61.1 0 h 0 min 0 998.4 1006.4

1 Température minimale relevée entre 18:00 UTC la veille et 18:00 UTC le jour donné.

2 Température maximale relevée entre 06:00 UTC le jour donné et 06:00 UTC le lendemain.

3 Vent moyen de la journée basé sur les relevés horaires.

4 Ensoleillement en heures relevé entre 06:00 UTC la veille et 06:00 UTC le jour donné.

5 Précipitations totales tombées entre 06:00 UTC la jour donné et 06:00 UTC le lendemain.

Graphiques horaires